sensor_id;sensor_type;location;lat;lon;timestamp;temperature;humidity
22006;DHT22;11167;46.988;15.470;2023-08-06T00:00:15;19.20;89.30
22006;DHT22;11167;46.988;15.470;2023-08-06T00:02:16;19.10;89.30
22006;DHT22;11167;46.988;15.470;2023-08-06T00:04:17;19.10;89.70
22006;DHT22;11167;46.988;15.470;2023-08-06T00:06:18;19.10;89.30
22006;DHT22;11167;46.988;15.470;2023-08-06T00:08:19;19.20;89.30
22006;DHT22;11167;46.988;15.470;2023-08-06T00:10:20;19.10;89.30
22006;DHT22;11167;46.988;15.470;2023-08-06T00:12:21;19.10;89.40
22006;DHT22;11167;46.988;15.470;2023-08-06T00:14:22;19.10;89.30
22006;DHT22;11167;46.988;15.470;2023-08-06T00:16:23;19.10;89.30
22006;DHT22;11167;46.988;15.470;2023-08-06T00:18:25;19.10;89.30
22006;DHT22;11167;46.988;15.470;2023-08-06T00:20:26;19.10;89.30
22006;DHT22;11167;46.988;15.470;2023-08-06T00:22:26;19.10;89.40
22006;DHT22;11167;46.988;15.470;2023-08-06T00:24:28;19.10;89.40
22006;DHT22;11167;46.988;15.470;2023-08-06T00:26:28;19.10;89.40
22006;DHT22;11167;46.988;15.470;2023-08-06T00:28:29;19.10;89.40
22006;DHT22;11167;46.988;15.470;2023-08-06T00:30:31;19.10;89.40
22006;DHT22;11167;46.988;15.470;2023-08-06T00:32:32;19.10;89.40
22006;DHT22;11167;46.988;15.470;2023-08-06T00:34:34;19.10;89.40
22006;DHT22;11167;46.988;15.470;2023-08-06T00:36:35;19.10;89.40
22006;DHT22;11167;46.988;15.470;2023-08-06T00:38:36;19.10;89.50
22006;DHT22;11167;46.988;15.470;2023-08-06T00:40:38;19.10;89.50
22006;DHT22;11167;46.988;15.470;2023-08-06T00:42:39;19.10;89.40
22006;DHT22;11167;46.988;15.470;2023-08-06T00:44:40;19.10;89.40
22006;DHT22;11167;46.988;15.470;2023-08-06T00:46:41;19.10;89.50
22006;DHT22;11167;46.988;15.470;2023-08-06T00:48:42;19.10;89.50
22006;DHT22;11167;46.988;15.470;2023-08-06T00:50:43;19.10;89.70
22006;DHT22;11167;46.988;15.470;2023-08-06T00:52:44;19.10;89.50
22006;DHT22;11167;46.988;15.470;2023-08-06T00:54:45;19.10;89.50
22006;DHT22;11167;46.988;15.470;2023-08-06T00:56:47;19.10;89.50
22006;DHT22;11167;46.988;15.470;2023-08-06T00:58:48;19.10;89.50
22006;DHT22;11167;46.988;15.470;2023-08-06T01:00:50;19.10;89.50
22006;DHT22;11167;46.988;15.470;2023-08-06T01:02:52;19.10;89.50
22006;DHT22;11167;46.988;15.470;2023-08-06T01:04:53;19.10;89.50
22006;DHT22;11167;46.988;15.470;2023-08-06T01:07:13;19.10;89.50
22006;DHT22;11167;46.988;15.470;2023-08-06T01:11:47;19.10;89.50
22006;DHT22;11167;46.988;15.470;2023-08-06T01:13:50;19.10;89.50
22006;DHT22;11167;46.988;15.470;2023-08-06T01:15:57;19.10;89.50
22006;DHT22;11167;46.988;15.470;2023-08-06T01:18:02;19.00;89.50
22006;DHT22;11167;46.988;15.470;2023-08-06T01:20:04;19.00;89.50
22006;DHT22;11167;46.988;15.470;2023-08-06T01:22:07;19.00;89.50
22006;DHT22;11167;46.988;15.470;2023-08-06T01:24:08;19.10;89.60
22006;DHT22;11167;46.988;15.470;2023-08-06T01:26:26;19.00;89.50
22006;DHT22;11167;46.988;15.470;2023-08-06T01:28:47;19.00;89.50
22006;DHT22;11167;46.988;15.470;2023-08-06T01:30:49;19.00;89.50
22006;DHT22;11167;46.988;15.470;2023-08-06T01:32:58;19.00;90.10
22006;DHT22;11167;46.988;15.470;2023-08-06T01:35:00;19.00;89.50
22006;DHT22;11167;46.988;15.470;2023-08-06T01:37:03;19.00;89.50
22006;DHT22;11167;46.988;15.470;2023-08-06T01:39:05;19.00;89.70
22006;DHT22;11167;46.988;15.470;2023-08-06T01:41:06;19.00;89.50
22006;DHT22;11167;46.988;15.470;2023-08-06T01:43:07;19.00;89.50
22006;DHT22;11167;46.988;15.470;2023-08-06T01:45:10;19.00;89.50
22006;DHT22;11167;46.988;15.470;2023-08-06T01:47:11;19.00;89.50
22006;DHT22;11167;46.988;15.470;2023-08-06T01:49:12;19.00;89.50
22006;DHT22;11167;46.988;15.470;2023-08-06T01:51:13;19.00;89.50
22006;DHT22;11167;46.988;15.470;2023-08-06T01:53:14;19.00;89.50
22006;DHT22;11167;46.988;15.470;2023-08-06T01:55:15;19.00;90.10
22006;DHT22;11167;46.988;15.470;2023-08-06T01:57:16;19.00;89.50
22006;DHT22;11167;46.988;15.470;2023-08-06T01:59:17;19.00;89.70
22006;DHT22;11167;46.988;15.470;2023-08-06T02:01:18;19.00;89.50
22006;DHT22;11167;46.988;15.470;2023-08-06T02:03:19;19.00;90.10
22006;DHT22;11167;46.988;15.470;2023-08-06T02:05:20;19.00;89.60
22006;DHT22;11167;46.988;15.470;2023-08-06T02:07:21;19.00;89.50
22006;DHT22;11167;46.988;15.470;2023-08-06T02:09:23;19.00;89.60
22006;DHT22;11167;46.988;15.470;2023-08-06T02:11:24;19.00;89.60
22006;DHT22;11167;46.988;15.470;2023-08-06T02:13:25;19.00;89.50
22006;DHT22;11167;46.988;15.470;2023-08-06T02:15:26;19.00;89.60
22006;DHT22;11167;46.988;15.470;2023-08-06T02:17:27;19.00;89.60
22006;DHT22;11167;46.988;15.470;2023-08-06T02:19:28;19.00;89.60
22006;DHT22;11167;46.988;15.470;2023-08-06T02:21:29;19.00;89.60
22006;DHT22;11167;46.988;15.470;2023-08-06T02:23:30;19.00;89.60
22006;DHT22;11167;46.988;15.470;2023-08-06T02:25:31;19.00;89.60
22006;DHT22;11167;46.988;15.470;2023-08-06T02:27:32;19.00;90.00
22006;DHT22;11167;46.988;15.470;2023-08-06T02:29:33;19.00;89.60
22006;DHT22;11167;46.988;15.470;2023-08-06T02:31:34;19.00;89.60
22006;DHT22;11167;46.988;15.470;2023-08-06T02:33:35;19.00;89.60
22006;DHT22;11167;46.988;15.470;2023-08-06T02:35:37;19.00;89.60
22006;DHT22;11167;46.988;15.470;2023-08-06T02:37:38;19.00;89.70
22006;DHT22;11167;46.988;15.470;2023-08-06T02:39:39;19.00;89.70
22006;DHT22;11167;46.988;15.470;2023-08-06T02:41:40;19.00;89.70
22006;DHT22;11167;46.988;15.470;2023-08-06T02:43:41;19.00;89.70
22006;DHT22;11167;46.988;15.470;2023-08-06T02:45:42;19.00;89.60
22006;DHT22;11167;46.988;15.470;2023-08-06T02:47:43;19.00;89.30
22006;DHT22;11167;46.988;15.470;2023-08-06T02:49:44;19.00;89.70
22006;DHT22;11167;46.988;15.470;2023-08-06T02:51:46;19.00;89.70
22006;DHT22;11167;46.988;15.470;2023-08-06T02:53:48;19.00;89.70
22006;DHT22;11167;46.988;15.470;2023-08-06T02:55:50;19.00;89.70
22006;DHT22;11167;46.988;15.470;2023-08-06T02:57:51;19.00;89.70
22006;DHT22;11167;46.988;15.470;2023-08-06T02:59:52;19.00;89.70
22006;DHT22;11167;46.988;15.470;2023-08-06T03:01:53;19.00;89.70
22006;DHT22;11167;46.988;15.470;2023-08-06T03:03:54;19.00;89.70
22006;DHT22;11167;46.988;15.470;2023-08-06T03:05:55;19.00;89.70
22006;DHT22;11167;46.988;15.470;2023-08-06T03:07:56;18.90;89.60
22006;DHT22;11167;46.988;15.470;2023-08-06T03:09:57;18.90;89.70
22006;DHT22;11167;46.988;15.470;2023-08-06T03:11:58;18.90;89.70
22006;DHT22;11167;46.988;15.470;2023-08-06T03:13:59;19.00;89.70
22006;DHT22;11167;46.988;15.470;2023-08-06T03:16:01;18.90;89.70
22006;DHT22;11167;46.988;15.470;2023-08-06T03:18:02;18.90;89.70
22006;DHT22;11167;46.988;15.470;2023-08-06T03:20:04;18.90;90.20
22006;DHT22;11167;46.988;15.470;2023-08-06T03:22:05;18.90;89.70
22006;DHT22;11167;46.988;15.470;2023-08-06T03:24:07;18.90;89.70
22006;DHT22;11167;46.988;15.470;2023-08-06T03:26:08;18.90;89.80
22006;DHT22;11167;46.988;15.470;2023-08-06T03:28:09;18.90;89.80
22006;DHT22;11167;46.988;15.470;2023-08-06T03:30:11;18.90;89.80
22006;DHT22;11167;46.988;15.470;2023-08-06T03:32:11;18.90;89.70
22006;DHT22;11167;46.988;15.470;2023-08-06T03:34:13;18.90;89.70
22006;DHT22;11167;46.988;15.470;2023-08-06T03:36:14;18.90;89.80
22006;DHT22;11167;46.988;15.470;2023-08-06T03:38:15;18.90;89.70
22006;DHT22;11167;46.988;15.470;2023-08-06T03:40:16;18.90;89.80
22006;DHT22;11167;46.988;15.470;2023-08-06T03:42:17;18.90;89.80
22006;DHT22;11167;46.988;15.470;2023-08-06T03:44:18;18.90;89.80
22006;DHT22;11167;46.988;15.470;2023-08-06T03:46:19;18.90;89.80
22006;DHT22;11167;46.988;15.470;2023-08-06T03:48:20;18.90;89.80
22006;DHT22;11167;46.988;15.470;2023-08-06T03:50:22;18.90;89.80
22006;DHT22;11167;46.988;15.470;2023-08-06T03:52:23;18.90;89.80
22006;DHT22;11167;46.988;15.470;2023-08-06T03:54:24;18.90;89.90
22006;DHT22;11167;46.988;15.470;2023-08-06T03:56:25;18.90;89.80
22006;DHT22;11167;46.988;15.470;2023-08-06T03:58:26;18.90;89.80
22006;DHT22;11167;46.988;15.470;2023-08-06T04:00:28;18.90;89.80
22006;DHT22;11167;46.988;15.470;2023-08-06T04:02:29;18.90;89.80
22006;DHT22;11167;46.988;15.470;2023-08-06T04:04:30;18.90;89.90
22006;DHT22;11167;46.988;15.470;2023-08-06T04:06:31;18.90;89.80
22006;DHT22;11167;46.988;15.470;2023-08-06T04:08:32;18.90;89.50
22006;DHT22;11167;46.988;15.470;2023-08-06T04:10:34;18.90;89.80
22006;DHT22;11167;46.988;15.470;2023-08-06T04:12:35;18.90;89.80
22006;DHT22;11167;46.988;15.470;2023-08-06T04:14:38;18.90;89.80
22006;DHT22;11167;46.988;15.470;2023-08-06T04:16:39;18.90;89.80
22006;DHT22;11167;46.988;15.470;2023-08-06T04:18:41;18.90;89.80
22006;DHT22;11167;46.988;15.470;2023-08-06T04:20:45;18.90;89.80
22006;DHT22;11167;46.988;15.470;2023-08-06T04:22:46;18.90;89.90
22006;DHT22;11167;46.988;15.470;2023-08-06T04:24:47;18.90;89.80
22006;DHT22;11167;46.988;15.470;2023-08-06T04:26:48;18.90;89.80
22006;DHT22;11167;46.988;15.470;2023-08-06T04:28:50;18.90;89.10
22006;DHT22;11167;46.988;15.470;2023-08-06T04:30:51;18.90;89.80
22006;DHT22;11167;46.988;15.470;2023-08-06T04:32:54;18.90;89.90
22006;DHT22;11167;46.988;15.470;2023-08-06T04:34:55;18.80;89.80
22006;DHT22;11167;46.988;15.470;2023-08-06T04:36:57;18.90;90.00
22006;DHT22;11167;46.988;15.470;2023-08-06T04:38:58;18.90;89.90
22006;DHT22;11167;46.988;15.470;2023-08-06T04:41:00;18.90;89.90
22006;DHT22;11167;46.988;15.470;2023-08-06T04:43:05;18.90;90.00
22006;DHT22;11167;46.988;15.470;2023-08-06T04:45:07;18.90;89.90
22006;DHT22;11167;46.988;15.470;2023-08-06T04:47:08;18.90;89.90
22006;DHT22;11167;46.988;15.470;2023-08-06T04:49:09;18.90;89.90
22006;DHT22;11167;46.988;15.470;2023-08-06T04:51:10;18.90;90.00
22006;DHT22;11167;46.988;15.470;2023-08-06T04:53:12;18.80;89.80
22006;DHT22;11167;46.988;15.470;2023-08-06T04:55:13;18.80;89.90
22006;DHT22;11167;46.988;15.470;2023-08-06T04:57:14;18.80;89.90
22006;DHT22;11167;46.988;15.470;2023-08-06T04:59:15;18.80;89.90
22006;DHT22;11167;46.988;15.470;2023-08-06T05:01:16;18.80;89.90
22006;DHT22;11167;46.988;15.470;2023-08-06T05:03:17;18.80;89.90
22006;DHT22;11167;46.988;15.470;2023-08-06T05:05:18;18.80;89.90
22006;DHT22;11167;46.988;15.470;2023-08-06T05:07:19;18.80;89.90
22006;DHT22;11167;46.988;15.470;2023-08-06T05:09:20;18.80;89.90
22006;DHT22;11167;46.988;15.470;2023-08-06T05:11:21;18.80;89.90
22006;DHT22;11167;46.988;15.470;2023-08-06T05:13:22;18.80;89.90
22006;DHT22;11167;46.988;15.470;2023-08-06T05:15:23;18.80;89.90
22006;DHT22;11167;46.988;15.470;2023-08-06T05:17:26;18.80;89.90
22006;DHT22;11167;46.988;15.470;2023-08-06T05:19:28;18.80;90.00
22006;DHT22;11167;46.988;15.470;2023-08-06T05:21:29;18.80;89.90
22006;DHT22;11167;46.988;15.470;2023-08-06T05:23:30;18.80;90.00
22006;DHT22;11167;46.988;15.470;2023-08-06T05:25:31;18.80;90.00
22006;DHT22;11167;46.988;15.470;2023-08-06T05:27:32;18.80;90.00
22006;DHT22;11167;46.988;15.470;2023-08-06T05:29:33;18.80;90.00
22006;DHT22;11167;46.988;15.470;2023-08-06T05:31:34;18.80;90.00
22006;DHT22;11167;46.988;15.470;2023-08-06T05:33:35;18.80;90.00
22006;DHT22;11167;46.988;15.470;2023-08-06T05:35:36;18.80;90.30
22006;DHT22;11167;46.988;15.470;2023-08-06T05:37:37;18.80;90.00
22006;DHT22;11167;46.988;15.470;2023-08-06T05:39:38;18.80;90.00
22006;DHT22;11167;46.988;15.470;2023-08-06T05:41:39;18.80;89.40
22006;DHT22;11167;46.988;15.470;2023-08-06T05:43:40;18.80;90.10
22006;DHT22;11167;46.988;15.470;2023-08-06T05:45:46;18.80;90.00
22006;DHT22;11167;46.988;15.470;2023-08-06T05:47:50;18.80;90.00
22006;DHT22;11167;46.988;15.470;2023-08-06T05:49:51;18.80;90.00
22006;DHT22;11167;46.988;15.470;2023-08-06T05:51:52;18.80;90.00
22006;DHT22;11167;46.988;15.470;2023-08-06T05:53:57;18.80;90.00
22006;DHT22;11167;46.988;15.470;2023-08-06T05:55:58;18.80;90.00
22006;DHT22;11167;46.988;15.470;2023-08-06T05:57:59;18.80;90.00
22006;DHT22;11167;46.988;15.470;2023-08-06T06:00:01;18.80;90.00
22006;DHT22;11167;46.988;15.470;2023-08-06T06:02:03;18.80;90.00
22006;DHT22;11167;46.988;15.470;2023-08-06T06:04:04;18.80;90.00
22006;DHT22;11167;46.988;15.470;2023-08-06T06:06:05;18.80;90.00
22006;DHT22;11167;46.988;15.470;2023-08-06T06:08:06;18.80;90.00
22006;DHT22;11167;46.988;15.470;2023-08-06T06:10:07;18.80;90.00
22006;DHT22;11167;46.988;15.470;2023-08-06T06:12:08;18.80;90.00
22006;DHT22;11167;46.988;15.470;2023-08-06T06:14:10;18.80;90.00
22006;DHT22;11167;46.988;15.470;2023-08-06T06:16:11;18.80;90.00
22006;DHT22;11167;46.988;15.470;2023-08-06T06:18:12;18.80;90.00
22006;DHT22;11167;46.988;15.470;2023-08-06T06:20:13;18.80;90.00
22006;DHT22;11167;46.988;15.470;2023-08-06T06:22:14;18.80;90.00
22006;DHT22;11167;46.988;15.470;2023-08-06T06:24:15;18.80;90.00
22006;DHT22;11167;46.988;15.470;2023-08-06T06:26:18;18.80;90.00
22006;DHT22;11167;46.988;15.470;2023-08-06T06:28:19;18.80;90.00
22006;DHT22;11167;46.988;15.470;2023-08-06T06:30:20;18.80;90.10
22006;DHT22;11167;46.988;15.470;2023-08-06T06:32:22;18.80;90.00
22006;DHT22;11167;46.988;15.470;2023-08-06T06:34:23;18.80;90.00
22006;DHT22;11167;46.988;15.470;2023-08-06T06:36:24;18.80;90.10
22006;DHT22;11167;46.988;15.470;2023-08-06T06:38:25;18.80;90.00
22006;DHT22;11167;46.988;15.470;2023-08-06T06:40:27;18.80;90.10
22006;DHT22;11167;46.988;15.470;2023-08-06T06:42:28;18.80;90.00
22006;DHT22;11167;46.988;15.470;2023-08-06T06:44:29;18.80;90.00
22006;DHT22;11167;46.988;15.470;2023-08-06T06:46:30;18.80;90.00
22006;DHT22;11167;46.988;15.470;2023-08-06T06:48:32;18.80;90.10
22006;DHT22;11167;46.988;15.470;2023-08-06T06:50:35;18.80;90.10
22006;DHT22;11167;46.988;15.470;2023-08-06T06:52:37;18.80;90.10
22006;DHT22;11167;46.988;15.470;2023-08-06T06:54:38;18.80;90.10
22006;DHT22;11167;46.988;15.470;2023-08-06T06:56:39;18.80;90.10
22006;DHT22;11167;46.988;15.470;2023-08-06T06:58:40;18.80;90.10
22006;DHT22;11167;46.988;15.470;2023-08-06T07:01:02;18.80;90.10
22006;DHT22;11167;46.988;15.470;2023-08-06T07:03:03;18.70;90.00
22006;DHT22;11167;46.988;15.470;2023-08-06T07:05:04;18.80;90.10
22006;DHT22;11167;46.988;15.470;2023-08-06T07:07:07;18.80;90.10
22006;DHT22;11167;46.988;15.470;2023-08-06T07:09:08;18.80;90.10
22006;DHT22;11167;46.988;15.470;2023-08-06T07:11:09;18.80;90.20
22006;DHT22;11167;46.988;15.470;2023-08-06T07:13:10;18.80;90.10
22006;DHT22;11167;46.988;15.470;2023-08-06T07:15:12;18.80;90.10
22006;DHT22;11167;46.988;15.470;2023-08-06T07:17:13;18.80;90.00
22006;DHT22;11167;46.988;15.470;2023-08-06T07:19:14;18.80;90.10
22006;DHT22;11167;46.988;15.470;2023-08-06T07:21:15;18.80;90.10
22006;DHT22;11167;46.988;15.470;2023-08-06T07:23:19;18.80;90.10
22006;DHT22;11167;46.988;15.470;2023-08-06T07:25:21;18.80;90.10
22006;DHT22;11167;46.988;15.470;2023-08-06T07:27:22;18.80;90.20
22006;DHT22;11167;46.988;15.470;2023-08-06T07:29:23;18.80;90.10
22006;DHT22;11167;46.988;15.470;2023-08-06T07:31:24;18.80;90.10
22006;DHT22;11167;46.988;15.470;2023-08-06T07:33:26;18.80;90.20
22006;DHT22;11167;46.988;15.470;2023-08-06T07:35:28;18.80;90.20
22006;DHT22;11167;46.988;15.470;2023-08-06T07:37:29;18.80;90.20
22006;DHT22;11167;46.988;15.470;2023-08-06T07:39:30;18.80;90.20
22006;DHT22;11167;46.988;15.470;2023-08-06T07:41:32;18.80;90.20
22006;DHT22;11167;46.988;15.470;2023-08-06T07:43:33;18.80;90.20
22006;DHT22;11167;46.988;15.470;2023-08-06T07:45:34;18.80;90.20
22006;DHT22;11167;46.988;15.470;2023-08-06T07:47:39;18.80;90.20
22006;DHT22;11167;46.988;15.470;2023-08-06T07:49:40;18.80;90.20
22006;DHT22;11167;46.988;15.470;2023-08-06T07:51:41;18.80;90.20
22006;DHT22;11167;46.988;15.470;2023-08-06T07:53:42;18.80;90.50
22006;DHT22;11167;46.988;15.470;2023-08-06T07:55:47;18.80;90.20
22006;DHT22;11167;46.988;15.470;2023-08-06T07:57:47;18.80;90.20
22006;DHT22;11167;46.988;15.470;2023-08-06T07:59:48;18.80;90.20
22006;DHT22;11167;46.988;15.470;2023-08-06T08:01:49;18.80;90.20
22006;DHT22;11167;46.988;15.470;2023-08-06T08:03:50;18.80;90.20
22006;DHT22;11167;46.988;15.470;2023-08-06T08:05:54;18.80;90.20
22006;DHT22;11167;46.988;15.470;2023-08-06T08:07:58;18.80;90.20
22006;DHT22;11167;46.988;15.470;2023-08-06T08:09:59;18.80;90.20
22006;DHT22;11167;46.988;15.470;2023-08-06T08:12:00;18.80;90.20
22006;DHT22;11167;46.988;15.470;2023-08-06T08:14:03;18.80;90.20
22006;DHT22;11167;46.988;15.470;2023-08-06T08:16:04;18.80;90.20
22006;DHT22;11167;46.988;15.470;2023-08-06T08:18:05;18.80;90.20
22006;DHT22;11167;46.988;15.470;2023-08-06T08:20:07;18.80;90.20
22006;DHT22;11167;46.988;15.470;2023-08-06T08:22:08;18.90;90.20
22006;DHT22;11167;46.988;15.470;2023-08-06T08:24:09;18.80;90.20
22006;DHT22;11167;46.988;15.470;2023-08-06T08:26:10;18.80;90.20
22006;DHT22;11167;46.988;15.470;2023-08-06T08:28:12;18.80;90.20
22006;DHT22;11167;46.988;15.470;2023-08-06T08:30:13;18.90;90.60
22006;DHT22;11167;46.988;15.470;2023-08-06T08:32:14;18.90;90.20
22006;DHT22;11167;46.988;15.470;2023-08-06T08:34:19;18.90;90.20
22006;DHT22;11167;46.988;15.470;2023-08-06T08:36:20;18.90;90.20
22006;DHT22;11167;46.988;15.470;2023-08-06T08:38:21;18.90;90.20
22006;DHT22;11167;46.988;15.470;2023-08-06T08:40:26;18.90;90.20
22006;DHT22;11167;46.988;15.470;2023-08-06T08:42:28;18.90;90.20
22006;DHT22;11167;46.988;15.470;2023-08-06T08:44:30;18.90;90.20
22006;DHT22;11167;46.988;15.470;2023-08-06T08:46:33;18.90;90.20
22006;DHT22;11167;46.988;15.470;2023-08-06T08:48:36;18.90;90.20
22006;DHT22;11167;46.988;15.470;2023-08-06T08:50:37;18.90;90.20
22006;DHT22;11167;46.988;15.470;2023-08-06T08:52:39;18.90;90.20
22006;DHT22;11167;46.988;15.470;2023-08-06T08:54:41;18.90;90.20
22006;DHT22;11167;46.988;15.470;2023-08-06T08:56:44;18.90;90.20
22006;DHT22;11167;46.988;15.470;2023-08-06T08:58:45;18.90;90.20
22006;DHT22;11167;46.988;15.470;2023-08-06T09:00:46;18.90;90.20
22006;DHT22;11167;46.988;15.470;2023-08-06T09:02:50;18.90;90.10
22006;DHT22;11167;46.988;15.470;2023-08-06T09:04:52;18.90;90.20
22006;DHT22;11167;46.988;15.470;2023-08-06T09:06:54;18.90;90.20
22006;DHT22;11167;46.988;15.470;2023-08-06T09:09:09;18.90;90.20
22006;DHT22;11167;46.988;15.470;2023-08-06T09:11:11;18.90;90.20
22006;DHT22;11167;46.988;15.470;2023-08-06T09:13:13;18.90;90.30
22006;DHT22;11167;46.988;15.470;2023-08-06T09:15:14;18.90;90.30
22006;DHT22;11167;46.988;15.470;2023-08-06T09:17:16;18.90;90.30
22006;DHT22;11167;46.988;15.470;2023-08-06T09:19:19;18.90;90.30
22006;DHT22;11167;46.988;15.470;2023-08-06T09:21:20;18.90;90.20
22006;DHT22;11167;46.988;15.470;2023-08-06T09:23:32;18.90;90.30
22006;DHT22;11167;46.988;15.470;2023-08-06T09:25:39;18.90;90.20
22006;DHT22;11167;46.988;15.470;2023-08-06T09:27:45;18.90;90.20
22006;DHT22;11167;46.988;15.470;2023-08-06T09:29:46;18.90;90.20
22006;DHT22;11167;46.988;15.470;2023-08-06T09:31:50;18.90;90.30
22006;DHT22;11167;46.988;15.470;2023-08-06T09:33:54;18.90;90.30
22006;DHT22;11167;46.988;15.470;2023-08-06T09:35:55;18.90;90.30
22006;DHT22;11167;46.988;15.470;2023-08-06T09:38:07;18.90;90.30
22006;DHT22;11167;46.988;15.470;2023-08-06T09:40:28;18.90;90.70
22006;DHT22;11167;46.988;15.470;2023-08-06T09:42:30;18.90;90.30
22006;DHT22;11167;46.988;15.470;2023-08-06T09:44:32;18.90;90.20
22006;DHT22;11167;46.988;15.470;2023-08-06T09:46:34;18.90;90.30
22006;DHT22;11167;46.988;15.470;2023-08-06T09:48:35;18.90;90.30
22006;DHT22;11167;46.988;15.470;2023-08-06T09:50:37;18.90;90.30
22006;DHT22;11167;46.988;15.470;2023-08-06T09:52:38;18.90;90.30
22006;DHT22;11167;46.988;15.470;2023-08-06T09:54:40;18.90;90.30
22006;DHT22;11167;46.988;15.470;2023-08-06T09:56:42;18.90;90.30
22006;DHT22;11167;46.988;15.470;2023-08-06T09:58:44;19.00;90.30
22006;DHT22;11167;46.988;15.470;2023-08-06T10:00:47;19.00;90.30
22006;DHT22;11167;46.988;15.470;2023-08-06T10:02:48;19.00;90.30
22006;DHT22;11167;46.988;15.470;2023-08-06T10:04:50;19.00;90.30
22006;DHT22;11167;46.988;15.470;2023-08-06T10:06:52;19.00;90.30
22006;DHT22;11167;46.988;15.470;2023-08-06T10:08:53;18.90;90.30
22006;DHT22;11167;46.988;15.470;2023-08-06T10:10:54;19.00;90.30
22006;DHT22;11167;46.988;15.470;2023-08-06T10:12:58;19.00;90.30
22006;DHT22;11167;46.988;15.470;2023-08-06T10:15:04;19.00;90.30
22006;DHT22;11167;46.988;15.470;2023-08-06T10:17:07;19.00;90.30
22006;DHT22;11167;46.988;15.470;2023-08-06T10:19:10;19.00;90.30
22006;DHT22;11167;46.988;15.470;2023-08-06T10:21:12;19.00;90.30
22006;DHT22;11167;46.988;15.470;2023-08-06T10:23:14;19.00;90.30
22006;DHT22;11167;46.988;15.470;2023-08-06T10:25:18;19.00;90.30
22006;DHT22;11167;46.988;15.470;2023-08-06T10:27:28;19.00;90.30
22006;DHT22;11167;46.988;15.470;2023-08-06T10:29:38;19.00;90.40
22006;DHT22;11167;46.988;15.470;2023-08-06T10:31:58;18.90;90.30
22006;DHT22;11167;46.988;15.470;2023-08-06T10:33:58;19.00;90.30
22006;DHT22;11167;46.988;15.470;2023-08-06T10:36:01;19.00;90.30
22006;DHT22;11167;46.988;15.470;2023-08-06T10:38:10;19.00;90.30
22006;DHT22;11167;46.988;15.470;2023-08-06T10:40:11;19.00;90.30
22006;DHT22;11167;46.988;15.470;2023-08-06T10:42:22;19.00;90.50
22006;DHT22;11167;46.988;15.470;2023-08-06T10:44:25;19.00;90.30
22006;DHT22;11167;46.988;15.470;2023-08-06T10:46:29;19.00;90.30
22006;DHT22;11167;46.988;15.470;2023-08-06T10:48:38;19.00;90.30
22006;DHT22;11167;46.988;15.470;2023-08-06T10:50:39;19.00;90.30
22006;DHT22;11167;46.988;15.470;2023-08-06T10:52:40;19.00;90.30
22006;DHT22;11167;46.988;15.470;2023-08-06T10:54:41;19.10;90.30
22006;DHT22;11167;46.988;15.470;2023-08-06T10:56:42;19.10;90.40
22006;DHT22;11167;46.988;15.470;2023-08-06T10:58:46;19.10;90.40
22006;DHT22;11167;46.988;15.470;2023-08-06T11:00:47;19.10;90.30
22006;DHT22;11167;46.988;15.470;2023-08-06T11:02:49;19.10;90.30
22006;DHT22;11167;46.988;15.470;2023-08-06T11:04:50;19.10;90.40
22006;DHT22;11167;46.988;15.470;2023-08-06T11:06:54;19.10;90.40
22006;DHT22;11167;46.988;15.470;2023-08-06T11:08:55;19.10;90.40
22006;DHT22;11167;46.988;15.470;2023-08-06T11:11:07;19.10;90.30
22006;DHT22;11167;46.988;15.470;2023-08-06T11:13:02;19.10;90.70
22006;DHT22;11167;46.988;15.470;2023-08-06T11:15:04;19.20;90.70
22006;DHT22;11167;46.988;15.470;2023-08-06T11:17:05;19.20;90.40
22006;DHT22;11167;46.988;15.470;2023-08-06T11:19:08;19.20;90.40
22006;DHT22;11167;46.988;15.470;2023-08-06T11:21:09;19.20;90.40
22006;DHT22;11167;46.988;15.470;2023-08-06T11:23:10;19.20;90.40
22006;DHT22;11167;46.988;15.470;2023-08-06T11:25:11;19.20;90.40
22006;DHT22;11167;46.988;15.470;2023-08-06T11:27:14;19.20;90.40
22006;DHT22;11167;46.988;15.470;2023-08-06T11:29:17;19.30;90.40
22006;DHT22;11167;46.988;15.470;2023-08-06T11:31:22;19.30;90.40
22006;DHT22;11167;46.988;15.470;2023-08-06T11:33:24;19.30;90.40
22006;DHT22;11167;46.988;15.470;2023-08-06T11:35:27;19.30;90.40
22006;DHT22;11167;46.988;15.470;2023-08-06T11:37:28;19.30;90.40
22006;DHT22;11167;46.988;15.470;2023-08-06T11:39:29;19.30;90.40
22006;DHT22;11167;46.988;15.470;2023-08-06T11:41:32;19.30;90.40
22006;DHT22;11167;46.988;15.470;2023-08-06T11:43:33;19.30;90.40
22006;DHT22;11167;46.988;15.470;2023-08-06T11:45:37;19.40;90.40
22006;DHT22;11167;46.988;15.470;2023-08-06T11:47:39;19.40;90.40
22006;DHT22;11167;46.988;15.470;2023-08-06T11:49:46;19.40;90.40
22006;DHT22;11167;46.988;15.470;2023-08-06T11:51:47;19.40;90.50
22006;DHT22;11167;46.988;15.470;2023-08-06T11:53:49;19.40;90.40
22006;DHT22;11167;46.988;15.470;2023-08-06T11:55:51;19.40;90.40
22006;DHT22;11167;46.988;15.470;2023-08-06T11:57:52;19.40;90.40
22006;DHT22;11167;46.988;15.470;2023-08-06T11:59:54;19.40;90.40
22006;DHT22;11167;46.988;15.470;2023-08-06T12:01:55;19.50;90.40
22006;DHT22;11167;46.988;15.470;2023-08-06T12:04:00;19.50;90.40
22006;DHT22;11167;46.988;15.470;2023-08-06T12:06:01;19.50;90.40
22006;DHT22;11167;46.988;15.470;2023-08-06T12:08:02;19.60;90.50
22006;DHT22;11167;46.988;15.470;2023-08-06T12:10:06;19.60;90.50
22006;DHT22;11167;46.988;15.470;2023-08-06T12:12:07;19.50;90.40
22006;DHT22;11167;46.988;15.470;2023-08-06T12:14:08;19.60;90.50
22006;DHT22;11167;46.988;15.470;2023-08-06T12:16:09;19.60;90.50
22006;DHT22;11167;46.988;15.470;2023-08-06T12:18:11;19.60;90.50
22006;DHT22;11167;46.988;15.470;2023-08-06T12:20:12;19.60;90.50
22006;DHT22;11167;46.988;15.470;2023-08-06T12:22:13;19.60;90.40
22006;DHT22;11167;46.988;15.470;2023-08-06T12:24:14;19.70;90.50
22006;DHT22;11167;46.988;15.470;2023-08-06T12:26:15;19.70;90.40
22006;DHT22;11167;46.988;15.470;2023-08-06T12:28:17;19.70;90.40
22006;DHT22;11167;46.988;15.470;2023-08-06T12:30:18;19.70;90.40
22006;DHT22;11167;46.988;15.470;2023-08-06T12:32:20;19.80;90.50
22006;DHT22;11167;46.988;15.470;2023-08-06T12:34:23;19.80;90.50
22006;DHT22;11167;46.988;15.470;2023-08-06T12:36:24;19.80;90.50
22006;DHT22;11167;46.988;15.470;2023-08-06T12:38:25;19.80;90.50
22006;DHT22;11167;46.988;15.470;2023-08-06T12:40:26;19.80;90.50